sensor_id;sensor_type;location;lat;lon;timestamp;P1;durP1;ratioP1;P2;durP2;ratioP2
74634;SDS011;63140;56.306;43.984;2022-09-21T00:02:00;7.83;;;5.10;;
74634;SDS011;63140;56.306;43.984;2022-09-21T00:04:26;8.48;;;4.65;;
74634;SDS011;63140;56.306;43.984;2022-09-21T00:06:52;10.23;;;5.65;;
74634;SDS011;63140;56.306;43.984;2022-09-21T00:09:18;7.27;;;4.77;;
74634;SDS011;63140;56.306;43.984;2022-09-21T00:11:44;8.45;;;5.25;;
74634;SDS011;63140;56.306;43.984;2022-09-21T00:14:11;8.63;;;4.97;;
74634;SDS011;63140;56.306;43.984;2022-09-21T00:16:39;13.63;;;5.00;;
74634;SDS011;63140;56.306;43.984;2022-09-21T00:19:07;9.52;;;4.97;;
74634;SDS011;63140;56.306;43.984;2022-09-21T00:21:34;9.70;;;5.28;;
74634;SDS011;63140;56.306;43.984;2022-09-21T00:24:00;9.40;;;5.13;;
74634;SDS011;63140;56.306;43.984;2022-09-21T00:26:26;9.23;;;5.38;;
74634;SDS011;63140;56.306;43.984;2022-09-21T00:28:54;10.97;;;5.53;;
74634;SDS011;63140;56.306;43.984;2022-09-21T00:31:24;10.65;;;7.00;;
74634;SDS011;63140;56.306;43.984;2022-09-21T00:33:52;10.27;;;5.63;;
74634;SDS011;63140;56.306;43.984;2022-09-21T00:36:18;11.00;;;6.95;;
74634;SDS011;63140;56.306;43.984;2022-09-21T00:38:50;9.57;;;6.20;;
74634;SDS011;63140;56.306;43.984;2022-09-21T00:41:21;8.32;;;5.70;;
74634;SDS011;63140;56.306;43.984;2022-09-21T00:43:48;11.50;;;5.80;;
74634;SDS011;63140;56.306;43.984;2022-09-21T00:46:52;9.00;;;6.17;;
74634;SDS011;63140;56.306;43.984;2022-09-21T00:49:20;10.63;;;5.65;;
74634;SDS011;63140;56.306;43.984;2022-09-21T00:51:47;9.73;;;6.13;;
74634;SDS011;63140;56.306;43.984;2022-09-21T00:54:18;9.85;;;6.13;;
74634;SDS011;63140;56.306;43.984;2022-09-21T00:56:52;11.55;;;5.97;;
74634;SDS011;63140;56.306;43.984;2022-09-21T00:59:20;11.35;;;5.88;;
74634;SDS011;63140;56.306;43.984;2022-09-21T01:01:47;9.70;;;6.15;;
74634;SDS011;63140;56.306;43.984;2022-09-21T01:04:12;9.23;;;5.47;;
74634;SDS011;63140;56.306;43.984;2022-09-21T01:06:42;10.23;;;6.13;;
74634;SDS011;63140;56.306;43.984;2022-09-21T01:09:08;12.73;;;7.15;;
74634;SDS011;63140;56.306;43.984;2022-09-21T01:17:05;12.50;;;8.00;;
74634;SDS011;63140;56.306;43.984;2022-09-21T01:28:56;12.65;;;6.95;;
74634;SDS011;63140;56.306;43.984;2022-09-21T01:37:25;10.70;;;7.05;;
74634;SDS011;63140;56.306;43.984;2022-09-21T01:39:59;10.90;;;6.72;;
74634;SDS011;63140;56.306;43.984;2022-09-21T01:42:29;10.47;;;6.97;;
74634;SDS011;63140;56.306;43.984;2022-09-21T01:44:58;10.10;;;5.77;;
74634;SDS011;63140;56.306;43.984;2022-09-21T01:47:28;11.85;;;6.60;;
74634;SDS011;63140;56.306;43.984;2022-09-21T01:49:55;11.70;;;7.15;;
74634;SDS011;63140;56.306;43.984;2022-09-21T01:52:31;11.70;;;7.10;;
74634;SDS011;63140;56.306;43.984;2022-09-21T01:55:15;11.13;;;7.00;;
74634;SDS011;63140;56.306;43.984;2022-09-21T01:57:45;9.68;;;7.00;;
74634;SDS011;63140;56.306;43.984;2022-09-21T02:00:24;8.70;;;6.57;;
74634;SDS011;63140;56.306;43.984;2022-09-21T02:02:52;11.53;;;6.80;;
74634;SDS011;63140;56.306;43.984;2022-09-21T02:05:23;11.98;;;7.22;;
74634;SDS011;63140;56.306;43.984;2022-09-21T02:07:51;13.88;;;6.53;;
74634;SDS011;63140;56.306;43.984;2022-09-21T02:10:19;11.32;;;7.35;;
74634;SDS011;63140;56.306;43.984;2022-09-21T02:12:49;12.38;;;7.75;;
74634;SDS011;63140;56.306;43.984;2022-09-21T02:15:21;11.80;;;7.68;;
74634;SDS011;63140;56.306;43.984;2022-09-21T02:17:58;10.73;;;8.53;;
74634;SDS011;63140;56.306;43.984;2022-09-21T02:20:31;11.83;;;8.17;;
74634;SDS011;63140;56.306;43.984;2022-09-21T02:23:17;11.98;;;7.40;;
74634;SDS011;63140;56.306;43.984;2022-09-21T02:25:53;11.93;;;8.60;;
74634;SDS011;63140;56.306;43.984;2022-09-21T02:31:00;13.37;;;8.03;;
74634;SDS011;63140;56.306;43.984;2022-09-21T02:33:41;10.63;;;7.77;;
74634;SDS011;63140;56.306;43.984;2022-09-21T02:36:22;11.95;;;8.25;;
74634;SDS011;63140;56.306;43.984;2022-09-21T02:39:11;15.48;;;8.27;;
74634;SDS011;63140;56.306;43.984;2022-09-21T02:41:44;12.93;;;8.88;;
74634;SDS011;63140;56.306;43.984;2022-09-21T02:44:19;14.43;;;7.97;;
74634;SDS011;63140;56.306;43.984;2022-09-21T02:46:54;12.13;;;8.68;;
74634;SDS011;63140;56.306;43.984;2022-09-21T02:49:26;13.20;;;8.82;;
74634;SDS011;63140;56.306;43.984;2022-09-21T02:51:57;13.93;;;8.57;;
74634;SDS011;63140;56.306;43.984;2022-09-21T02:54:28;13.88;;;8.77;;
74634;SDS011;63140;56.306;43.984;2022-09-21T02:56:57;18.90;;;9.10;;
74634;SDS011;63140;56.306;43.984;2022-09-21T02:59:25;14.02;;;9.85;;
74634;SDS011;63140;56.306;43.984;2022-09-21T03:01:51;20.42;;;10.02;;
74634;SDS011;63140;56.306;43.984;2022-09-21T03:04:17;15.57;;;9.50;;
74634;SDS011;63140;56.306;43.984;2022-09-21T03:06:43;17.80;;;11.77;;
74634;SDS011;63140;56.306;43.984;2022-09-21T03:09:09;17.80;;;10.87;;
74634;SDS011;63140;56.306;43.984;2022-09-21T03:11:35;22.58;;;13.00;;
74634;SDS011;63140;56.306;43.984;2022-09-21T03:14:01;21.27;;;11.57;;
74634;SDS011;63140;56.306;43.984;2022-09-21T03:16:31;15.32;;;10.13;;
74634;SDS011;63140;56.306;43.984;2022-09-21T03:18:57;16.75;;;9.90;;
74634;SDS011;63140;56.306;43.984;2022-09-21T03:21:22;19.63;;;11.13;;
74634;SDS011;63140;56.306;43.984;2022-09-21T03:23:48;19.33;;;11.10;;
74634;SDS011;63140;56.306;43.984;2022-09-21T03:26:14;20.67;;;11.50;;
74634;SDS011;63140;56.306;43.984;2022-09-21T03:28:40;23.23;;;11.43;;
74634;SDS011;63140;56.306;43.984;2022-09-21T03:31:06;18.85;;;12.00;;
74634;SDS011;63140;56.306;43.984;2022-09-21T03:33:31;17.17;;;10.93;;
74634;SDS011;63140;56.306;43.984;2022-09-21T03:35:57;15.85;;;10.75;;
74634;SDS011;63140;56.306;43.984;2022-09-21T03:38:23;17.35;;;11.10;;
74634;SDS011;63140;56.306;43.984;2022-09-21T03:40:50;21.65;;;13.40;;
74634;SDS011;63140;56.306;43.984;2022-09-21T03:43:16;15.43;;;10.33;;
74634;SDS011;63140;56.306;43.984;2022-09-21T03:45:42;16.67;;;11.20;;
74634;SDS011;63140;56.306;43.984;2022-09-21T03:48:12;21.20;;;12.15;;
74634;SDS011;63140;56.306;43.984;2022-09-21T03:50:39;14.68;;;9.63;;
74634;SDS011;63140;56.306;43.984;2022-09-21T03:53:06;18.40;;;9.85;;
74634;SDS011;63140;56.306;43.984;2022-09-21T03:55:32;18.00;;;10.03;;
74634;SDS011;63140;56.306;43.984;2022-09-21T03:57:59;11.30;;;8.47;;
74634;SDS011;63140;56.306;43.984;2022-09-21T04:00:25;15.48;;;9.15;;
74634;SDS011;63140;56.306;43.984;2022-09-21T04:02:51;14.52;;;8.52;;
74634;SDS011;63140;56.306;43.984;2022-09-21T04:05:17;14.07;;;10.43;;
74634;SDS011;63140;56.306;43.984;2022-09-21T04:07:43;16.48;;;9.98;;
74634;SDS011;63140;56.306;43.984;2022-09-21T04:10:10;14.43;;;9.50;;
74634;SDS011;63140;56.306;43.984;2022-09-21T04:12:38;17.63;;;10.03;;
74634;SDS011;63140;56.306;43.984;2022-09-21T04:15:08;14.95;;;9.65;;
74634;SDS011;63140;56.306;43.984;2022-09-21T04:17:38;15.23;;;9.90;;
74634;SDS011;63140;56.306;43.984;2022-09-21T04:20:04;15.02;;;7.80;;
74634;SDS011;63140;56.306;43.984;2022-09-21T04:22:31;12.05;;;8.00;;
74634;SDS011;63140;56.306;43.984;2022-09-21T04:24:57;9.43;;;6.33;;
74634;SDS011;63140;56.306;43.984;2022-09-21T04:27:23;12.93;;;7.60;;
74634;SDS011;63140;56.306;43.984;2022-09-21T04:29:49;13.43;;;8.05;;
74634;SDS011;63140;56.306;43.984;2022-09-21T04:32:15;14.70;;;8.60;;
74634;SDS011;63140;56.306;43.984;2022-09-21T04:34:40;14.60;;;8.97;;
74634;SDS011;63140;56.306;43.984;2022-09-21T04:37:06;15.93;;;9.32;;
74634;SDS011;63140;56.306;43.984;2022-09-21T04:39:33;15.98;;;9.02;;
74634;SDS011;63140;56.306;43.984;2022-09-21T04:42:00;13.38;;;8.65;;
74634;SDS011;63140;56.306;43.984;2022-09-21T04:44:26;16.90;;;9.00;;
74634;SDS011;63140;56.306;43.984;2022-09-21T04:46:52;16.67;;;9.53;;
74634;SDS011;63140;56.306;43.984;2022-09-21T04:49:18;18.23;;;8.00;;
74634;SDS011;63140;56.306;43.984;2022-09-21T04:51:44;13.27;;;8.73;;
74634;SDS011;63140;56.306;43.984;2022-09-21T04:54:09;15.93;;;9.87;;
74634;SDS011;63140;56.306;43.984;2022-09-21T04:56:35;13.25;;;8.32;;
74634;SDS011;63140;56.306;43.984;2022-09-21T04:59:01;14.25;;;8.45;;
74634;SDS011;63140;56.306;43.984;2022-09-21T05:01:27;11.67;;;7.63;;
74634;SDS011;63140;56.306;43.984;2022-09-21T05:03:53;12.53;;;8.30;;
74634;SDS011;63140;56.306;43.984;2022-09-21T05:06:19;12.68;;;8.55;;
74634;SDS011;63140;56.306;43.984;2022-09-21T05:08:45;16.23;;;10.30;;
74634;SDS011;63140;56.306;43.984;2022-09-21T05:11:29;16.75;;;9.20;;
74634;SDS011;63140;56.306;43.984;2022-09-21T05:13:56;15.82;;;9.30;;
74634;SDS011;63140;56.306;43.984;2022-09-21T05:16:21;19.00;;;7.97;;
74634;SDS011;63140;56.306;43.984;2022-09-21T05:18:51;17.13;;;8.45;;
74634;SDS011;63140;56.306;43.984;2022-09-21T05:21:19;11.55;;;6.88;;
74634;SDS011;63140;56.306;43.984;2022-09-21T05:23:45;12.80;;;7.65;;
74634;SDS011;63140;56.306;43.984;2022-09-21T05:26:11;15.63;;;6.80;;
74634;SDS011;63140;56.306;43.984;2022-09-21T05:28:37;10.73;;;6.93;;
74634;SDS011;63140;56.306;43.984;2022-09-21T05:31:26;15.77;;;7.22;;
74634;SDS011;63140;56.306;43.984;2022-09-21T05:33:53;11.05;;;6.88;;
74634;SDS011;63140;56.306;43.984;2022-09-21T05:39:19;13.05;;;7.07;;
74634;SDS011;63140;56.306;43.984;2022-09-21T05:41:45;12.95;;;7.88;;
74634;SDS011;63140;56.306;43.984;2022-09-21T05:44:12;16.42;;;8.15;;
74634;SDS011;63140;56.306;43.984;2022-09-21T05:46:45;11.77;;;8.30;;
74634;SDS011;63140;56.306;43.984;2022-09-21T05:49:18;16.87;;;8.43;;
74634;SDS011;63140;56.306;43.984;2022-09-21T06:05:11;15.68;;;9.68;;
74634;SDS011;63140;56.306;43.984;2022-09-21T06:07:38;16.30;;;9.73;;
74634;SDS011;63140;56.306;43.984;2022-09-21T06:10:06;13.40;;;9.53;;
74634;SDS011;63140;56.306;43.984;2022-09-21T06:12:32;14.82;;;8.60;;
74634;SDS011;63140;56.306;43.984;2022-09-21T06:14:58;15.18;;;9.95;;
74634;SDS011;63140;56.306;43.984;2022-09-21T06:17:27;14.38;;;10.48;;
74634;SDS011;63140;56.306;43.984;2022-09-21T06:19:53;12.98;;;9.32;;
74634;SDS011;63140;56.306;43.984;2022-09-21T06:22:19;19.47;;;9.43;;
74634;SDS011;63140;56.306;43.984;2022-09-21T06:24:44;11.35;;;7.03;;
74634;SDS011;63140;56.306;43.984;2022-09-21T06:27:10;13.23;;;6.22;;
74634;SDS011;63140;56.306;43.984;2022-09-21T06:29:36;10.47;;;6.83;;
74634;SDS011;63140;56.306;43.984;2022-09-21T06:32:02;11.13;;;7.75;;
74634;SDS011;63140;56.306;43.984;2022-09-21T06:34:29;13.80;;;7.40;;
74634;SDS011;63140;56.306;43.984;2022-09-21T06:36:55;13.57;;;6.97;;
74634;SDS011;63140;56.306;43.984;2022-09-21T06:39:22;11.75;;;6.60;;
74634;SDS011;63140;56.306;43.984;2022-09-21T06:41:48;12.18;;;6.28;;
74634;SDS011;63140;56.306;43.984;2022-09-21T06:44:14;12.70;;;7.20;;
74634;SDS011;63140;56.306;43.984;2022-09-21T06:46:40;12.63;;;6.00;;
74634;SDS011;63140;56.306;43.984;2022-09-21T06:49:06;11.25;;;5.95;;
74634;SDS011;63140;56.306;43.984;2022-09-21T06:51:32;9.75;;;5.85;;
74634;SDS011;63140;56.306;43.984;2022-09-21T06:53:59;11.35;;;6.57;;
74634;SDS011;63140;56.306;43.984;2022-09-21T06:56:25;11.63;;;6.73;;
74634;SDS011;63140;56.306;43.984;2022-09-21T06:58:51;15.07;;;6.43;;
74634;SDS011;63140;56.306;43.984;2022-09-21T07:01:17;11.48;;;6.43;;
74634;SDS011;63140;56.306;43.984;2022-09-21T07:03:43;11.40;;;6.90;;
74634;SDS011;63140;56.306;43.984;2022-09-21T07:06:12;12.55;;;7.00;;
74634;SDS011;63140;56.306;43.984;2022-09-21T07:08:40;10.00;;;6.70;;
74634;SDS011;63140;56.306;43.984;2022-09-21T07:11:06;13.25;;;6.45;;
74634;SDS011;63140;56.306;43.984;2022-09-21T07:13:33;8.87;;;5.90;;
74634;SDS011;63140;56.306;43.984;2022-09-21T07:16:03;11.90;;;6.23;;
74634;SDS011;63140;56.306;43.984;2022-09-21T07:18:31;10.50;;;6.03;;
74634;SDS011;63140;56.306;43.984;2022-09-21T07:21:04;12.43;;;5.70;;
74634;SDS011;63140;56.306;43.984;2022-09-21T07:23:32;12.65;;;6.35;;
74634;SDS011;63140;56.306;43.984;2022-09-21T07:26:01;13.57;;;6.43;;
74634;SDS011;63140;56.306;43.984;2022-09-21T07:28:30;10.55;;;6.13;;
74634;SDS011;63140;56.306;43.984;2022-09-21T07:30:57;9.95;;;6.22;;
74634;SDS011;63140;56.306;43.984;2022-09-21T07:33:24;10.18;;;5.72;;
74634;SDS011;63140;56.306;43.984;2022-09-21T07:35:53;11.77;;;6.57;;
74634;SDS011;63140;56.306;43.984;2022-09-21T07:38:22;9.43;;;5.33;;
74634;SDS011;63140;56.306;43.984;2022-09-21T07:40:48;12.98;;;7.65;;
74634;SDS011;63140;56.306;43.984;2022-09-21T07:43:14;11.77;;;6.53;;
74634;SDS011;63140;56.306;43.984;2022-09-21T07:45:40;9.30;;;5.30;;
74634;SDS011;63140;56.306;43.984;2022-09-21T07:48:06;10.35;;;5.07;;
74634;SDS011;63140;56.306;43.984;2022-09-21T07:50:36;10.57;;;5.13;;
74634;SDS011;63140;56.306;43.984;2022-09-21T07:53:02;14.13;;;6.03;;
74634;SDS011;63140;56.306;43.984;2022-09-21T07:55:28;9.25;;;4.95;;
74634;SDS011;63140;56.306;43.984;2022-09-21T07:57:54;10.70;;;5.00;;
74634;SDS011;63140;56.306;43.984;2022-09-21T08:00:39;7.32;;;4.22;;
74634;SDS011;63140;56.306;43.984;2022-09-21T08:03:05;10.43;;;4.03;;
74634;SDS011;63140;56.306;43.984;2022-09-21T08:05:31;9.43;;;4.37;;
74634;SDS011;63140;56.306;43.984;2022-09-21T08:07:58;8.43;;;4.37;;
74634;SDS011;63140;56.306;43.984;2022-09-21T08:10:24;7.55;;;3.97;;
74634;SDS011;63140;56.306;43.984;2022-09-21T08:12:53;9.27;;;4.70;;
74634;SDS011;63140;56.306;43.984;2022-09-21T08:15:20;6.32;;;3.70;;
74634;SDS011;63140;56.306;43.984;2022-09-21T08:17:46;7.28;;;3.90;;
74634;SDS011;63140;56.306;43.984;2022-09-21T08:20:11;9.53;;;4.13;;
74634;SDS011;63140;56.306;43.984;2022-09-21T08:22:38;6.85;;;4.22;;
74634;SDS011;63140;56.306;43.984;2022-09-21T08:25:05;9.10;;;3.47;;
74634;SDS011;63140;56.306;43.984;2022-09-21T08:27:31;6.93;;;4.50;;
74634;SDS011;63140;56.306;43.984;2022-09-21T08:29:56;8.02;;;4.35;;
74634;SDS011;63140;56.306;43.984;2022-09-21T08:32:23;6.57;;;4.27;;
74634;SDS011;63140;56.306;43.984;2022-09-21T08:34:48;7.45;;;4.40;;
74634;SDS011;63140;56.306;43.984;2022-09-21T08:37:33;8.55;;;4.60;;
74634;SDS011;63140;56.306;43.984;2022-09-21T08:40:04;8.63;;;4.20;;
74634;SDS011;63140;56.306;43.984;2022-09-21T08:45:11;7.50;;;4.38;;
74634;SDS011;63140;56.306;43.984;2022-09-21T08:47:45;8.25;;;4.18;;
74634;SDS011;63140;56.306;43.984;2022-09-21T08:50:36;7.93;;;3.80;;
74634;SDS011;63140;56.306;43.984;2022-09-21T08:53:08;8.83;;;4.17;;
74634;SDS011;63140;56.306;43.984;2022-09-21T08:55:39;8.60;;;4.35;;
74634;SDS011;63140;56.306;43.984;2022-09-21T09:01:16;7.32;;;4.32;;
74634;SDS011;63140;56.306;43.984;2022-09-21T09:03:54;9.23;;;4.38;;
74634;SDS011;63140;56.306;43.984;2022-09-21T09:21:02;6.68;;;4.15;;
74634;SDS011;63140;56.306;43.984;2022-09-21T09:26:22;8.75;;;4.65;;
74634;SDS011;63140;56.306;43.984;2022-09-21T09:29:01;5.60;;;3.90;;
74634;SDS011;63140;56.306;43.984;2022-09-21T09:31:36;6.63;;;3.90;;
74634;SDS011;63140;56.306;43.984;2022-09-21T09:36:38;7.40;;;3.88;;
74634;SDS011;63140;56.306;43.984;2022-09-21T09:39:11;7.73;;;3.90;;
74634;SDS011;63140;56.306;43.984;2022-09-21T09:52:18;6.43;;;3.40;;
74634;SDS011;63140;56.306;43.984;2022-09-21T09:54:45;6.47;;;3.72;;
74634;SDS011;63140;56.306;43.984;2022-09-21T09:57:11;6.63;;;3.85;;
74634;SDS011;63140;56.306;43.984;2022-09-21T09:59:42;6.72;;;4.20;;
74634;SDS011;63140;56.306;43.984;2022-09-21T10:02:22;5.85;;;3.95;;
74634;SDS011;63140;56.306;43.984;2022-09-21T10:07:41;9.23;;;5.13;;
74634;SDS011;63140;56.306;43.984;2022-09-21T10:12:55;8.38;;;4.15;;
74634;SDS011;63140;56.306;43.984;2022-09-21T10:15:27;5.93;;;3.47;;
74634;SDS011;63140;56.306;43.984;2022-09-21T10:18:00;5.72;;;4.00;;
74634;SDS011;63140;56.306;43.984;2022-09-21T10:20:37;5.03;;;3.90;;
74634;SDS011;63140;56.306;43.984;2022-09-21T10:23:03;5.93;;;3.92;;
74634;SDS011;63140;56.306;43.984;2022-09-21T10:25:30;6.57;;;3.92;;
74634;SDS011;63140;56.306;43.984;2022-09-21T10:27:57;7.00;;;4.53;;
74634;SDS011;63140;56.306;43.984;2022-09-21T10:30:33;12.23;;;6.27;;
74634;SDS011;63140;56.306;43.984;2022-09-21T10:33:03;12.45;;;7.60;;
74634;SDS011;63140;56.306;43.984;2022-09-21T10:35:50;10.43;;;6.97;;
74634;SDS011;63140;56.306;43.984;2022-09-21T10:38:20;10.20;;;5.53;;
74634;SDS011;63140;56.306;43.984;2022-09-21T10:40:53;9.77;;;6.18;;
74634;SDS011;63140;56.306;43.984;2022-09-21T10:43:28;9.60;;;5.60;;
74634;SDS011;63140;56.306;43.984;2022-09-21T10:46:04;11.45;;;5.38;;
74634;SDS011;63140;56.306;43.984;2022-09-21T10:48:30;10.30;;;5.45;;
74634;SDS011;63140;56.306;43.984;2022-09-21T10:50:56;7.17;;;5.03;;
74634;SDS011;63140;56.306;43.984;2022-09-21T10:58:26;8.93;;;5.75;;
74634;SDS011;63140;56.306;43.984;2022-09-21T11:00:55;12.23;;;5.25;;
74634;SDS011;63140;56.306;43.984;2022-09-21T11:03:47;10.15;;;4.95;;
74634;SDS011;63140;56.306;43.984;2022-09-21T11:06:15;12.10;;;6.57;;
74634;SDS011;63140;56.306;43.984;2022-09-21T11:08:49;11.15;;;6.07;;
74634;SDS011;63140;56.306;43.984;2022-09-21T11:14:00;6.50;;;4.90;;
74634;SDS011;63140;56.306;43.984;2022-09-21T11:16:59;10.15;;;5.93;;
74634;SDS011;63140;56.306;43.984;2022-09-21T11:19:48;8.68;;;4.25;;
74634;SDS011;63140;56.306;43.984;2022-09-21T11:28:05;7.47;;;3.78;;
74634;SDS011;63140;56.306;43.984;2022-09-21T11:33:50;8.23;;;4.80;;
74634;SDS011;63140;56.306;43.984;2022-09-21T11:42:19;10.63;;;5.33;;
74634;SDS011;63140;56.306;43.984;2022-09-21T11:44:59;6.72;;;5.43;;
74634;SDS011;63140;56.306;43.984;2022-09-21T11:53:29;8.82;;;7.93;;
74634;SDS011;63140;56.306;43.984;2022-09-21T12:04:04;5.78;;;5.10;;
74634;SDS011;63140;56.306;43.984;2022-09-21T12:17:28;7.65;;;3.42;;
74634;SDS011;63140;56.306;43.984;2022-09-21T12:22:45;5.05;;;2.88;;
74634;SDS011;63140;56.306;43.984;2022-09-21T12:25:16;5.15;;;3.00;;
74634;SDS011;63140;56.306;43.984;2022-09-21T12:30:57;5.13;;;2.92;;
74634;SDS011;63140;56.306;43.984;2022-09-21T12:36:12;8.03;;;3.47;;
74634;SDS011;63140;56.306;43.984;2022-09-21T12:38:49;6.32;;;4.07;;
74634;SDS011;63140;56.306;43.984;2022-09-21T12:46:40;5.00;;;2.70;;
74634;SDS011;63140;56.306;43.984;2022-09-21T12:49:15;7.45;;;2.42;;
74634;SDS011;63140;56.306;43.984;2022-09-21T12:51:48;8.15;;;2.80;;
74634;SDS011;63140;56.306;43.984;2022-09-21T12:54:27;6.50;;;3.15;;
74634;SDS011;63140;56.306;43.984;2022-09-21T12:59:48;5.60;;;2.53;;
74634;SDS011;63140;56.306;43.984;2022-09-21T13:08:24;7.40;;;3.13;;
74634;SDS011;63140;56.306;43.984;2022-09-21T13:11:00;8.15;;;3.78;;
74634;SDS011;63140;56.306;43.984;2022-09-21T13:16:01;7.15;;;3.60;;
74634;SDS011;63140;56.306;43.984;2022-09-21T13:23:39;6.07;;;2.80;;
74634;SDS011;63140;56.306;43.984;2022-09-21T13:26:07;6.38;;;2.75;;
74634;SDS011;63140;56.306;43.984;2022-09-21T13:28:40;5.65;;;3.13;;
74634;SDS011;63140;56.306;43.984;2022-09-21T13:31:29;5.10;;;3.17;;
74634;SDS011;63140;56.306;43.984;2022-09-21T13:39:47;11.35;;;3.08;;
74634;SDS011;63140;56.306;43.984;2022-09-21T13:47:39;5.27;;;3.20;;
74634;SDS011;63140;56.306;43.984;2022-09-21T13:50:18;5.23;;;3.07;;
74634;SDS011;63140;56.306;43.984;2022-09-21T13:53:27;6.07;;;2.60;;
74634;SDS011;63140;56.306;43.984;2022-09-21T13:58:50;7.30;;;4.05;;
74634;SDS011;63140;56.306;43.984;2022-09-21T14:01:32;7.15;;;3.53;;
74634;SDS011;63140;56.306;43.984;2022-09-21T14:04:13;6.18;;;3.53;;
74634;SDS011;63140;56.306;43.984;2022-09-21T14:06:48;9.32;;;3.72;;
74634;SDS011;63140;56.306;43.984;2022-09-21T14:11:56;7.13;;;3.38;;
74634;SDS011;63140;56.306;43.984;2022-09-21T14:14:32;11.70;;;4.07;;
74634;SDS011;63140;56.306;43.984;2022-09-21T14:17:04;8.23;;;3.50;;
74634;SDS011;63140;56.306;43.984;2022-09-21T14:22:31;7.05;;;4.38;;
74634;SDS011;63140;56.306;43.984;2022-09-21T14:28:12;8.77;;;4.22;;
74634;SDS011;63140;56.306;43.984;2022-09-21T14:30:40;5.57;;;3.30;;
74634;SDS011;63140;56.306;43.984;2022-09-21T14:35:46;11.13;;;4.82;;
74634;SDS011;63140;56.306;43.984;2022-09-21T14:40:39;9.23;;;3.57;;
74634;SDS011;63140;56.306;43.984;2022-09-21T14:43:15;9.32;;;4.30;;
74634;SDS011;63140;56.306;43.984;2022-09-21T14:54:06;7.40;;;3.80;;
74634;SDS011;63140;56.306;43.984;2022-09-21T15:02:12;10.98;;;3.17;;
74634;SDS011;63140;56.306;43.984;2022-09-21T15:05:04;5.18;;;3.22;;
74634;SDS011;63140;56.306;43.984;2022-09-21T15:07:48;8.93;;;3.40;;
74634;SDS011;63140;56.306;43.984;2022-09-21T15:10:36;8.05;;;3.80;;
74634;SDS011;63140;56.306;43.984;2022-09-21T15:19:26;10.05;;;3.60;;
74634;SDS011;63140;56.306;43.984;2022-09-21T15:21:45;6.90;;;4.10;;
74634;SDS011;63140;56.306;43.984;2022-09-21T15:24:26;6.90;;;4.07;;
74634;SDS011;63140;56.306;43.984;2022-09-21T15:27:05;7.57;;;3.77;;
74634;SDS011;63140;56.306;43.984;2022-09-21T15:29:34;5.88;;;3.50;;
74634;SDS011;63140;56.306;43.984;2022-09-21T15:32:02;7.40;;;4.18;;
74634;SDS011;63140;56.306;43.984;2022-09-21T15:34:29;6.25;;;3.72;;
74634;SDS011;63140;56.306;43.984;2022-09-21T15:37:06;8.00;;;3.78;;
74634;SDS011;63140;56.306;43.984;2022-09-21T15:39:36;6.70;;;3.55;;
74634;SDS011;63140;56.306;43.984;2022-09-21T15:44:34;5.90;;;3.30;;
74634;SDS011;63140;56.306;43.984;2022-09-21T15:47:02;5.63;;;3.20;;
74634;SDS011;63140;56.306;43.984;2022-09-21T15:49:33;5.30;;;3.13;;
74634;SDS011;63140;56.306;43.984;2022-09-21T15:54:41;4.72;;;3.15;;
74634;SDS011;63140;56.306;43.984;2022-09-21T15:59:51;6.03;;;3.30;;
74634;SDS011;63140;56.306;43.984;2022-09-21T16:02:20;5.40;;;3.58;;
74634;SDS011;63140;56.306;43.984;2022-09-21T16:04:48;6.57;;;3.83;;
74634;SDS011;63140;56.306;43.984;2022-09-21T16:07:33;7.18;;;3.88;;
74634;SDS011;63140;56.306;43.984;2022-09-21T16:10:01;8.57;;;5.13;;
74634;SDS011;63140;56.306;43.984;2022-09-21T16:12:36;8.03;;;4.37;;
74634;SDS011;63140;56.306;43.984;2022-09-21T16:15:05;8.55;;;4.82;;
74634;SDS011;63140;56.306;43.984;2022-09-21T16:17:40;10.07;;;4.38;;
74634;SDS011;63140;56.306;43.984;2022-09-21T16:20:45;7.70;;;4.60;;
74634;SDS011;63140;56.306;43.984;2022-09-21T16:23:30;6.90;;;3.78;;
74634;SDS011;63140;56.306;43.984;2022-09-21T16:25:57;6.10;;;3.63;;
74634;SDS011;63140;56.306;43.984;2022-09-21T16:28:43;5.97;;;3.95;;
74634;SDS011;63140;56.306;43.984;2022-09-21T16:34:03;7.55;;;3.55;;
74634;SDS011;63140;56.306;43.984;2022-09-21T16:36:33;5.33;;;3.00;;
74634;SDS011;63140;56.306;43.984;2022-09-21T16:39:02;4.87;;;3.17;;
74634;SDS011;63140;56.306;43.984;2022-09-21T16:41:36;4.63;;;2.72;;
74634;SDS011;63140;56.306;43.984;2022-09-21T16:44:05;4.35;;;2.75;;
74634;SDS011;63140;56.306;43.984;2022-09-21T16:46:35;6.57;;;3.60;;
74634;SDS011;63140;56.306;43.984;2022-09-21T16:49:01;7.03;;;2.90;;
74634;SDS011;63140;56.306;43.984;2022-09-21T16:51:27;5.75;;;3.15;;
74634;SDS011;63140;56.306;43.984;2022-09-21T16:53:53;4.77;;;2.87;;
74634;SDS011;63140;56.306;43.984;2022-09-21T16:56:20;6.63;;;3.47;;
74634;SDS011;63140;56.306;43.984;2022-09-21T16:58:46;5.88;;;3.08;;
74634;SDS011;63140;56.306;43.984;2022-09-21T17:01:15;7.28;;;3.25;;
74634;SDS011;63140;56.306;43.984;2022-09-21T17:03:44;5.53;;;3.22;;
74634;SDS011;63140;56.306;43.984;2022-09-21T17:06:18;6.82;;;3.55;;
74634;SDS011;63140;56.306;43.984;2022-09-21T17:08:46;8.27;;;3.37;;
74634;SDS011;63140;56.306;43.984;2022-09-21T17:11:16;6.23;;;3.67;;
74634;SDS011;63140;56.306;43.984;2022-09-21T17:13:46;6.45;;;3.92;;
74634;SDS011;63140;56.306;43.984;2022-09-21T17:16:16;6.45;;;3.83;;
74634;SDS011;63140;56.306;43.984;2022-09-21T17:18:44;6.25;;;3.72;;
74634;SDS011;63140;56.306;43.984;2022-09-21T17:21:10;6.95;;;4.38;;
74634;SDS011;63140;56.306;43.984;2022-09-21T17:23:37;6.50;;;3.83;;
74634;SDS011;63140;56.306;43.984;2022-09-21T17:26:03;6.70;;;4.07;;
74634;SDS011;63140;56.306;43.984;2022-09-21T17:28:40;7.35;;;3.80;;
74634;SDS011;63140;56.306;43.984;2022-09-21T17:31:07;9.90;;;4.20;;
74634;SDS011;63140;56.306;43.984;2022-09-21T17:33:38;7.50;;;4.55;;
74634;SDS011;63140;56.306;43.984;2022-09-21T17:36:04;7.68;;;4.50;;
74634;SDS011;63140;56.306;43.984;2022-09-21T17:38:31;8.50;;;4.93;;
74634;SDS011;63140;56.306;43.984;2022-09-21T17:40:57;7.27;;;4.37;;
74634;SDS011;63140;56.306;43.984;2022-09-21T17:43:42;6.85;;;4.65;;
74634;SDS011;63140;56.306;43.984;2022-09-21T17:48:52;6.05;;;4.20;;
74634;SDS011;63140;56.306;43.984;2022-09-21T17:51:18;5.65;;;3.97;;
74634;SDS011;63140;56.306;43.984;2022-09-21T17:54:04;6.65;;;4.13;;
74634;SDS011;63140;56.306;43.984;2022-09-21T17:59:33;6.97;;;4.18;;
74634;SDS011;63140;56.306;43.984;2022-09-21T18:01:58;7.13;;;4.53;;
74634;SDS011;63140;56.306;43.984;2022-09-21T18:04:26;7.00;;;4.50;;
74634;SDS011;63140;56.306;43.984;2022-09-21T18:06:54;8.05;;;3.90;;
74634;SDS011;63140;56.306;43.984;2022-09-21T18:09:20;5.57;;;3.85;;
74634;SDS011;63140;56.306;43.984;2022-09-21T18:14:51;6.10;;;3.70;;
74634;SDS011;63140;56.306;43.984;2022-09-21T18:20:15;8.02;;;4.00;;
74634;SDS011;63140;56.306;43.984;2022-09-21T18:22:51;8.20;;;4.95;;
74634;SDS011;63140;56.306;43.984;2022-09-21T18:25:33;8.73;;;4.13;;
74634;SDS011;63140;56.306;43.984;2022-09-21T18:28:34;7.77;;;4.10;;
74634;SDS011;63140;56.306;43.984;2022-09-21T18:36:43;7.47;;;4.40;;
74634;SDS011;63140;56.306;43.984;2022-09-21T18:39:31;7.93;;;4.20;;
74634;SDS011;63140;56.306;43.984;2022-09-21T18:42:23;6.65;;;4.20;;
74634;SDS011;63140;56.306;43.984;2022-09-21T18:45:26;5.57;;;4.25;;